Time;durP1;ratioP1;P1;durP2;ratioP2;P2;SDS_P1;SDS_P2;PMS_P1;PMS_P2;Temp;Humidity;BMP_temperature;BMP_pressure;BME280_temperature;BME280_humidity;BME280_pressure;Samples;Min_cycle;Max_cycle;Signal;HPM_P1;HPM_P2
2024/02/20 00:01:58;;;;;;;0.27;0.27;;;;;;;;;;5091338;28;20261;-67
2024/02/20 00:04:23;;;;;;;0.10;0.10;;;;;;;;;;5075144;28;20265;-67
2024/02/20 00:06:48;;;;;;;0.00;0.00;;;;;;;;;;5074770;28;20028;-67
2024/02/20 00:09:14;;;;;;;0.00;0.00;;;;;;;;;;5074991;28;20028;-67
2024/02/20 00:11:39;;;;;;;0.08;0.08;;;;;;;;;;5088780;28;20031;-67
2024/02/20 00:14:04;;;;;;;0.03;0.03;;;;;;;;;;5094653;28;20028;-67
2024/02/20 00:16:30;;;;;;;0.00;0.00;;;;;;;;;;5083264;28;20357;-67
2024/02/20 00:18:55;;;;;;;0.30;0.30;;;;;;;;;;5087845;28;20253;-67
2024/02/20 00:21:20;;;;;;;0.22;0.22;;;;;;;;;;5094206;28;20393;-67
2024/02/20 00:23:45;;;;;;;0.00;0.00;;;;;;;;;;5074795;28;20028;-67
2024/02/20 00:26:11;;;;;;;0.10;0.10;;;;;;;;;;5074366;28;20044;-67
2024/02/20 00:28:40;;;;;;;0.17;0.17;;;;;;;;;;5074453;28;20257;-67
2024/02/20 00:31:06;;;;;;;0.08;0.08;;;;;;;;;;5074082;28;20303;-67
2024/02/20 00:33:31;;;;;;;0.00;0.00;;;;;;;;;;5074619;28;20012;-67
2024/02/20 00:35:56;;;;;;;0.10;0.10;;;;;;;;;;5074542;28;20078;-67
2024/02/20 00:38:22;;;;;;;0.10;0.10;;;;;;;;;;5074287;28;20029;-67
2024/02/20 00:40:47;;;;;;;0.00;0.00;;;;;;;;;;5074003;28;20273;-67
2024/02/20 00:43:13;;;;;;;0.10;0.10;;;;;;;;;;5067341;28;20281;-67
2024/02/20 00:45:38;;;;;;;0.00;0.00;;;;;;;;;;5074341;28;20265;-67
2024/02/20 00:48:04;;;;;;;0.20;0.20;;;;;;;;;;5082212;28;20103;-67
2024/02/20 00:50:29;;;;;;;0.00;0.00;;;;;;;;;;5093575;28;20256;-67
2024/02/20 00:52:55;;;;;;;0.00;0.00;;;;;;;;;;5079472;28;20035;-67
2024/02/20 00:55:20;;;;;;;0.00;0.00;;;;;;;;;;5073886;28;20017;-67
2024/02/20 00:57:45;;;;;;;0.00;0.00;;;;;;;;;;5073807;28;20024;-67
2024/02/20 01:00:13;;;;;;;0.00;0.00;;;;;;;;;;5088716;28;20613;-67
2024/02/20 01:02:38;;;;;;;0.00;0.00;;;;;;;;;;5081835;28;20261;-67
2024/02/20 01:05:04;;;;;;;0.00;0.00;;;;;;;;;;5086410;28;20023;-67
2024/02/20 01:07:29;;;;;;;0.10;0.10;;;;;;;;;;5093589;28;20111;-67
2024/02/20 01:09:54;;;;;;;0.28;0.28;;;;;;;;;;5091615;28;20032;-67
2024/02/20 01:12:20;;;;;;;0.03;0.03;;;;;;;;;;5079503;28;20022;-67
2024/02/20 01:14:47;;;;;;;0.00;0.00;;;;;;;;;;5091050;28;20292;-67
2024/02/20 01:17:12;;;;;;;0.00;0.00;;;;;;;;;;5081334;28;20472;-67
2024/02/20 01:19:38;;;;;;;0.40;0.40;;;;;;;;;;5073540;28;20056;-67
2024/02/20 01:22:03;;;;;;;0.00;0.00;;;;;;;;;;5074850;28;20311;-67
2024/02/20 01:24:28;;;;;;;0.07;0.07;;;;;;;;;;5086085;28;20267;-67
2024/02/20 01:26:54;;;;;;;1.17;0.63;;;;;;;;;;5093347;28;20313;-67
2024/02/20 01:29:22;;;;;;;0.00;0.00;;;;;;;;;;5074637;28;20330;-67
2024/02/20 01:31:49;;;;;;;0.08;0.08;;;;;;;;;;5089575;28;20050;-67
2024/02/20 01:34:14;;;;;;;0.00;0.00;;;;;;;;;;5093208;28;20031;-67
2024/02/20 01:36:39;;;;;;;3.63;1.40;;;;;;;;;;5093172;28;20024;-67
2024/02/20 01:39:04;;;;;;;0.00;0.00;;;;;;;;;;5075421;28;20613;-67
2024/02/20 01:41:30;;;;;;;0.00;0.00;;;;;;;;;;5092535;28;20751;-67
2024/02/20 01:43:55;;;;;;;0.40;0.40;;;;;;;;;;5090859;28;20276;-67
2024/02/20 01:46:22;;;;;;;0.10;0.10;;;;;;;;;;5075162;28;20260;-67
2024/02/20 01:48:48;;;;;;;0.10;0.10;;;;;;;;;;5073501;28;20269;-67
2024/02/20 01:51:14;;;;;;;0.10;0.10;;;;;;;;;;5080846;28;20469;-67
2024/02/20 01:53:39;;;;;;;0.00;0.00;;;;;;;;;;5073103;28;20060;-67
2024/02/20 01:56:06;;;;;;;0.20;0.20;;;;;;;;;;5073068;28;20035;-67
2024/02/20 01:58:32;;;;;;;0.10;0.10;;;;;;;;;;5089461;28;20921;-67
2024/02/20 02:00:57;;;;;;;0.00;0.00;;;;;;;;;;5089870;28;20117;-67
2024/02/20 02:03:22;;;;;;;0.20;0.20;;;;;;;;;;5074120;28;20492;-67
2024/02/20 02:05:47;;;;;;;0.10;0.10;;;;;;;;;;5089879;28;20260;-67
2024/02/20 02:08:16;;;;;;;0.27;0.27;;;;;;;;;;5089241;28;20743;-67
2024/02/20 02:10:41;;;;;;;0.00;0.00;;;;;;;;;;5072920;28;20253;-67
2024/02/20 02:13:07;;;;;;;0.20;0.20;;;;;;;;;;5072938;28;20025;-67
2024/02/20 02:15:32;;;;;;;0.20;0.20;;;;;;;;;;5074023;28;20503;-67
2024/02/20 02:17:57;;;;;;;0.00;0.00;;;;;;;;;;5073154;28;20384;-67
2024/02/20 02:20:23;;;;;;;0.08;0.08;;;;;;;;;;5089375;28;20728;-67
2024/02/20 02:22:48;;;;;;;0.55;0.55;;;;;;;;;;5084500;28;20365;-67
2024/02/20 02:25:13;;;;;;;0.10;0.10;;;;;;;;;;5092432;28;20024;-67
2024/02/20 02:27:39;;;;;;;0.03;0.03;;;;;;;;;;5074705;28;20028;-67
2024/02/20 02:30:05;;;;;;;0.20;0.20;;;;;;;;;;5072679;28;20044;-67
2024/02/20 02:32:31;;;;;;;0.10;0.10;;;;;;;;;;5072664;28;20063;-67
2024/02/20 02:34:56;;;;;;;0.63;0.63;;;;;;;;;;5073837;28;20097;-67
2024/02/20 02:37:21;;;;;;;0.10;0.10;;;;;;;;;;5072780;28;20028;-67
2024/02/20 02:39:47;;;;;;;0.10;0.10;;;;;;;;;;5075730;28;20249;-67
2024/02/20 02:42:12;;;;;;;0.10;0.10;;;;;;;;;;5093175;28;20245;-67
2024/02/20 02:44:37;;;;;;;0.10;0.10;;;;;;;;;;5092791;28;20490;-67
2024/02/20 02:47:03;;;;;;;0.00;0.00;;;;;;;;;;5092917;28;20078;-67
2024/02/20 02:49:29;;;;;;;0.50;0.35;;;;;;;;;;5093087;28;20032;-67
2024/02/20 02:51:54;;;;;;;0.10;0.10;;;;;;;;;;5092947;28;20058;-67
2024/02/20 02:54:19;;;;;;;0.00;0.00;;;;;;;;;;5093852;28;20016;-67
2024/02/20 02:56:44;;;;;;;0.10;0.10;;;;;;;;;;5093368;28;20284;-67
2024/02/20 02:59:10;;;;;;;0.10;0.10;;;;;;;;;;5076232;28;20021;-67
2024/02/20 03:01:35;;;;;;;0.37;0.37;;;;;;;;;;5092880;28;20103;-67
2024/02/20 03:04:00;;;;;;;0.10;0.10;;;;;;;;;;5094343;28;20288;-67
2024/02/20 03:06:25;;;;;;;0.10;0.10;;;;;;;;;;5089109;28;20337;-67
2024/02/20 03:08:51;;;;;;;0.10;0.10;;;;;;;;;;5077301;28;20273;-67
2024/02/20 03:11:19;;;;;;;0.15;0.15;;;;;;;;;;5075800;28;20021;-67
2024/02/20 03:13:47;;;;;;;0.10;0.10;;;;;;;;;;5091903;28;20052;-67
2024/02/20 03:16:13;;;;;;;0.10;0.10;;;;;;;;;;5092601;28;20019;-67
2024/02/20 03:18:38;;;;;;;0.38;0.38;;;;;;;;;;5090236;28;20164;-67
2024/02/20 03:21:04;;;;;;;0.10;0.10;;;;;;;;;;5077872;28;20070;-67
2024/02/20 03:23:31;;;;;;;0.10;0.10;;;;;;;;;;5076761;28;20015;-67
2024/02/20 03:25:56;;;;;;;0.00;0.00;;;;;;;;;;5075699;28;20016;-67
2024/02/20 03:28:22;;;;;;;0.13;0.13;;;;;;;;;;5075817;28;20387;-67
2024/02/20 03:30:47;;;;;;;0.05;0.05;;;;;;;;;;5088839;28;20103;-67
2024/02/20 03:33:12;;;;;;;0.00;0.00;;;;;;;;;;5087114;28;20020;-67
2024/02/20 03:35:38;;;;;;;0.10;0.10;;;;;;;;;;5075470;28;20460;-67
2024/02/20 03:38:04;;;;;;;0.10;0.10;;;;;;;;;;5058548;28;20264;-67
2024/02/20 03:40:30;;;;;;;0.10;0.10;;;;;;;;;;5092178;28;20059;-67
2024/02/20 03:42:55;;;;;;;0.10;0.10;;;;;;;;;;5095063;28;20028;-67
2024/02/20 03:45:21;;;;;;;1.27;1.17;;;;;;;;;;5094964;28;20388;-67
2024/02/20 03:47:46;;;;;;;0.10;0.10;;;;;;;;;;5093208;28;20084;-67
2024/02/20 03:50:11;;;;;;;0.20;0.20;;;;;;;;;;5077755;28;20024;-67
2024/02/20 03:52:36;;;;;;;1.00;0.33;;;;;;;;;;5077934;28;20299;-67
2024/02/20 03:55:01;;;;;;;0.10;0.10;;;;;;;;;;5095026;28;20249;-67
2024/02/20 03:57:27;;;;;;;0.00;0.00;;;;;;;;;;5093550;28;20026;-67
2024/02/20 03:59:53;;;;;;;0.30;0.30;;;;;;;;;;5075027;28;20453;-67
2024/02/20 04:02:19;;;;;;;0.00;0.00;;;;;;;;;;5076302;28;20025;-67
2024/02/20 04:04:44;;;;;;;0.10;0.10;;;;;;;;;;5084715;28;20456;-67
2024/02/20 04:07:10;;;;;;;0.85;0.68;;;;;;;;;;5079476;28;20523;-67
2024/02/20 04:09:36;;;;;;;0.55;0.55;;;;;;;;;;5074835;28;20399;-67
2024/02/20 04:12:01;;;;;;;0.13;0.13;;;;;;;;;;5085491;28;20028;-67
2024/02/20 04:14:26;;;;;;;0.10;0.10;;;;;;;;;;5088713;28;20026;-67
2024/02/20 04:16:51;;;;;;;0.10;0.10;;;;;;;;;;5074609;28;20020;-67
2024/02/20 04:19:17;;;;;;;0.10;0.10;;;;;;;;;;5077646;28;20249;-67
2024/02/20 04:21:42;;;;;;;0.00;0.00;;;;;;;;;;5094301;28;20027;-67
2024/02/20 04:24:07;;;;;;;0.43;0.43;;;;;;;;;;5084791;28;20629;-67
2024/02/20 04:26:32;;;;;;;0.10;0.10;;;;;;;;;;5074721;28;20280;-67
2024/02/20 04:28:58;;;;;;;0.10;0.10;;;;;;;;;;5074334;28;20025;-67
2024/02/20 04:31:23;;;;;;;0.10;0.10;;;;;;;;;;5074560;28;20741;-67
2024/02/20 04:33:48;;;;;;;0.00;0.00;;;;;;;;;;5082365;28;20249;-67
2024/02/20 04:36:14;;;;;;;0.30;0.30;;;;;;;;;;5082164;28;20021;-67
2024/02/20 04:38:40;;;;;;;0.10;0.10;;;;;;;;;;5075306;28;20736;-67
2024/02/20 04:41:06;;;;;;;0.00;0.00;;;;;;;;;;5086348;28;20016;-67
2024/02/20 04:43:31;;;;;;;0.03;0.03;;;;;;;;;;5089488;28;20048;-67
2024/02/20 04:45:56;;;;;;;0.33;0.10;;;;;;;;;;5080730;28;20302;-67
2024/02/20 04:48:21;;;;;;;0.10;0.10;;;;;;;;;;5076354;28;20272;-67
2024/02/20 04:50:47;;;;;;;0.00;0.00;;;;;;;;;;5073926;28;20318;-67
2024/02/20 04:53:12;;;;;;;0.20;0.20;;;;;;;;;;5073835;28;20289;-67
2024/02/20 04:55:37;;;;;;;1.03;0.77;;;;;;;;;;5089806;28;20034;-67
2024/02/20 04:58:02;;;;;;;0.00;0.00;;;;;;;;;;5093195;28;20297;-67
2024/02/20 05:00:28;;;;;;;0.03;0.03;;;;;;;;;;5093659;28;20033;-67
2024/02/20 05:02:53;;;;;;;0.10;0.10;;;;;;;;;;5093159;28;20066;-67
2024/02/20 05:05:18;;;;;;;0.10;0.10;;;;;;;;;;5083772;28;20260;-67
2024/02/20 05:07:43;;;;;;;0.00;0.00;;;;;;;;;;5075247;28;20284;-67
2024/02/20 05:10:10;;;;;;;0.28;0.20;;;;;;;;;;5083977;28;20268;-76
2024/02/20 05:12:36;;;;;;;0.00;0.00;;;;;;;;;;5093871;28;20031;-67
2024/02/20 05:15:01;;;;;;;0.38;0.38;;;;;;;;;;5093809;28;20059;-67
2024/02/20 05:17:26;;;;;;;0.00;0.00;;;;;;;;;;5093992;28;20044;-67
2024/02/20 05:19:52;;;;;;;1.30;0.40;;;;;;;;;;5093978;28;20019;-67
2024/02/20 05:22:19;;;;;;;0.00;0.00;;;;;;;;;;5093882;28;20243;-67
2024/02/20 05:24:44;;;;;;;0.13;0.13;;;;;;;;;;5093581;28;20103;-66
2024/02/20 05:27:09;;;;;;;0.85;0.20;;;;;;;;;;5075457;28;20051;-66
2024/02/20 05:29:35;;;;;;;0.93;0.77;;;;;;;;;;5093590;28;20016;-67
2024/02/20 05:32:01;;;;;;;0.25;0.25;;;;;;;;;;5093728;28;20272;-67
2024/02/20 05:34:26;;;;;;;0.10;0.10;;;;;;;;;;5093389;28;20030;-67
2024/02/20 05:36:51;;;;;;;0.10;0.10;;;;;;;;;;5093493;28;20095;-67
2024/02/20 05:39:16;;;;;;;0.17;0.17;;;;;;;;;;5093393;28;20027;-67
2024/02/20 05:41:42;;;;;;;0.10;0.10;;;;;;;;;;5093463;28;20361;-66
2024/02/20 05:44:07;;;;;;;2.83;0.32;;;;;;;;;;5093313;28;20298;-67
2024/02/20 05:46:33;;;;;;;0.10;0.10;;;;;;;;;;5093595;28;20043;-67
2024/02/20 05:48:59;;;;;;;0.10;0.10;;;;;;;;;;5075390;28;20523;-67
2024/02/20 05:51:25;;;;;;;0.10;0.10;;;;;;;;;;5093482;28;20073;-67
2024/02/20 05:53:50;;;;;;;0.00;0.00;;;;;;;;;;5093240;28;20487;-66
2024/02/20 05:56:16;;;;;;;0.00;0.00;;;;;;;;;;5093184;28;20031;-66
2024/02/20 05:58:44;;;;;;;0.57;0.57;;;;;;;;;;5093281;28;20031;-67
2024/02/20 06:01:09;;;;;;;0.10;0.10;;;;;;;;;;5093238;28;20084;-66
2024/02/20 06:03:36;;;;;;;1.90;0.95;;;;;;;;;;5093117;28;20511;-66
2024/02/20 06:06:01;;;;;;;0.20;0.20;;;;;;;;;;5093104;28;20034;-67
2024/02/20 06:08:26;;;;;;;0.20;0.20;;;;;;;;;;5093122;28;20095;-67
2024/02/20 06:10:51;;;;;;;0.20;0.20;;;;;;;;;;5092973;28;20020;-66
2024/02/20 06:13:17;;;;;;;0.00;0.00;;;;;;;;;;5092979;28;20636;-67
2024/02/20 06:15:42;;;;;;;0.20;0.20;;;;;;;;;;5093188;28;20020;-66
2024/02/20 06:18:07;;;;;;;0.10;0.10;;;;;;;;;;5093368;28;20237;-67
2024/02/20 06:20:32;;;;;;;0.33;0.30;;;;;;;;;;5093215;28;20016;-67
2024/02/20 06:22:59;;;;;;;0.20;0.20;;;;;;;;;;5093169;28;20301;-67
2024/02/20 06:25:26;;;;;;;0.10;0.10;;;;;;;;;;5091761;28;20284;-67
2024/02/20 06:27:51;;;;;;;0.10;0.10;;;;;;;;;;5073191;28;20028;-67
2024/02/20 06:30:17;;;;;;;0.35;0.35;;;;;;;;;;5076719;28;20098;-66
2024/02/20 06:32:42;;;;;;;0.00;0.00;;;;;;;;;;5076927;28;20487;-67
2024/02/20 06:35:08;;;;;;;0.10;0.10;;;;;;;;;;5076728;28;20067;-66
2024/02/20 06:37:33;;;;;;;0.10;0.10;;;;;;;;;;5076911;28;20027;-67
2024/02/20 06:39:58;;;;;;;0.00;0.00;;;;;;;;;;5076625;28;20392;-67
2024/02/20 06:42:24;;;;;;;0.20;0.20;;;;;;;;;;5076496;28;20388;-67
2024/02/20 06:44:49;;;;;;;0.13;0.13;;;;;;;;;;5076334;28;20040;-67
2024/02/20 06:47:14;;;;;;;8.73;0.63;;;;;;;;;;5076456;28;20237;-67
2024/02/20 06:49:40;;;;;;;0.33;0.33;;;;;;;;;;5076433;28;20281;-67
2024/02/20 06:52:05;;;;;;;0.00;0.00;;;;;;;;;;5076321;28;20725;-67
2024/02/20 06:54:30;;;;;;;0.10;0.10;;;;;;;;;;5076358;28;20062;-67
2024/02/20 06:56:55;;;;;;;0.00;0.00;;;;;;;;;;5076325;28;20032;-67
2024/02/20 06:59:21;;;;;;;0.30;0.30;;;;;;;;;;5076181;28;20252;-67
2024/02/20 07:01:46;;;;;;;0.43;0.43;;;;;;;;;;5076213;28;20328;-66
2024/02/20 07:04:13;;;;;;;0.20;0.20;;;;;;;;;;5076143;28;20249;-66
2024/02/20 07:06:39;;;;;;;0.00;0.00;;;;;;;;;;5076005;28;20246;-67
2024/02/20 07:09:04;;;;;;;0.30;0.30;;;;;;;;;;5075957;28;20150;-66
2024/02/20 07:11:29;;;;;;;0.10;0.10;;;;;;;;;;5075905;28;20051;-67
2024/02/20 07:13:55;;;;;;;0.27;0.27;;;;;;;;;;5076044;28;20295;-66
2024/02/20 07:16:20;;;;;;;0.20;0.20;;;;;;;;;;5076143;28;20436;-67
2024/02/20 07:18:45;;;;;;;0.10;0.10;;;;;;;;;;5075931;28;20439;-66
2024/02/20 07:21:10;;;;;;;0.00;0.00;;;;;;;;;;5075834;28;20063;-67
2024/02/20 07:23:36;;;;;;;0.20;0.20;;;;;;;;;;5075787;28;20103;-67
2024/02/20 07:26:01;;;;;;;0.10;0.10;;;;;;;;;;5075817;28;20229;-67
2024/02/20 07:28:26;;;;;;;0.07;0.07;;;;;;;;;;5075961;28;20070;-66
2024/02/20 07:30:51;;;;;;;0.32;0.32;;;;;;;;;;5075625;28;20233;-67
2024/02/20 07:33:17;;;;;;;0.43;0.43;;;;;;;;;;5075553;28;20017;-67
2024/02/20 07:35:42;;;;;;;0.10;0.10;;;;;;;;;;5075852;28;20245;-67
2024/02/20 07:38:07;;;;;;;0.00;0.00;;;;;;;;;;5075660;28;20362;-67
2024/02/20 07:40:32;;;;;;;2.37;0.47;;;;;;;;;;5074261;28;20589;-67
2024/02/20 07:43:00;;;;;;;0.17;0.17;;;;;;;;;;5075536;28;20020;-66
2024/02/20 07:45:26;;;;;;;0.00;0.00;;;;;;;;;;5075213;28;20067;-66
2024/02/20 07:47:51;;;;;;;0.00;0.00;;;;;;;;;;5075618;28;20476;-66
2024/02/20 07:50:17;;;;;;;0.30;0.30;;;;;;;;;;5075310;28;20388;-66
2024/02/20 07:52:42;;;;;;;0.60;0.60;;;;;;;;;;5075412;28;20269;-67
2024/02/20 07:55:08;;;;;;;0.60;0.57;;;;;;;;;;5075438;28;20096;-66
2024/02/20 07:57:34;;;;;;;0.60;0.60;;;;;;;;;;5075347;28;20028;-66
2024/02/20 07:59:59;;;;;;;0.20;0.20;;;;;;;;;;5075156;28;20381;-67
2024/02/20 08:02:24;;;;;;;0.03;0.03;;;;;;;;;;5075405;28;20732;-67
2024/02/20 08:04:51;;;;;;;0.10;0.10;;;;;;;;;;5075259;28;20375;-67
2024/02/20 08:07:16;;;;;;;0.57;0.57;;;;;;;;;;5075227;28;20032;-66
2024/02/20 08:09:42;;;;;;;0.30;0.30;;;;;;;;;;5074940;28;20097;-67
2024/02/20 08:12:07;;;;;;;0.15;0.15;;;;;;;;;;5074925;28;20052;-66
2024/02/20 08:14:32;;;;;;;0.45;0.45;;;;;;;;;;5074782;28;20017;-67
2024/02/20 08:16:57;;;;;;;0.13;0.13;;;;;;;;;;5074716;28;20016;-66
2024/02/20 08:19:23;;;;;;;0.10;0.10;;;;;;;;;;5074730;28;20027;-66
2024/02/20 08:21:48;;;;;;;0.17;0.17;;;;;;;;;;5074689;28;20252;-67
2024/02/20 08:24:14;;;;;;;0.20;0.20;;;;;;;;;;5074647;28;20044;-67
2024/02/20 08:26:39;;;;;;;0.73;0.65;;;;;;;;;;5056875;28;20020;-67
2024/02/20 08:29:04;;;;;;;0.13;0.13;;;;;;;;;;5074575;28;20095;-67
2024/02/20 08:31:30;;;;;;;0.00;0.00;;;;;;;;;;5074644;28;20028;-67
2024/02/20 08:33:55;;;;;;;0.20;0.20;;;;;;;;;;5074333;28;20464;-66
2024/02/20 08:36:20;;;;;;;1.05;0.40;;;;;;;;;;5074618;28;20027;-66
2024/02/20 08:38:46;;;;;;;0.30;0.30;;;;;;;;;;5074227;28;20533;-66
2024/02/20 08:41:12;;;;;;;0.70;0.38;;;;;;;;;;5074286;28;20024;-66
2024/02/20 08:43:38;;;;;;;0.10;0.10;;;;;;;;;;5074015;28;20040;-67
2024/02/20 08:46:04;;;;;;;0.65;0.65;;;;;;;;;;5074221;28;20024;-66
2024/02/20 08:48:29;;;;;;;0.68;0.28;;;;;;;;;;5074364;28;20082;-66
2024/02/20 08:50:54;;;;;;;0.57;0.13;;;;;;;;;;5073882;28;20446;-67
2024/02/20 08:53:19;;;;;;;0.10;0.10;;;;;;;;;;5073828;28;20533;-66
2024/02/20 08:55:45;;;;;;;0.20;0.20;;;;;;;;;;5074040;28;20257;-66
2024/02/20 08:58:10;;;;;;;1.00;0.57;;;;;;;;;;5074150;28;20017;-66
2024/02/20 09:00:35;;;;;;;0.43;0.43;;;;;;;;;;5074174;28;20049;-66
2024/02/20 09:03:01;;;;;;;0.10;0.10;;;;;;;;;;5074135;28;20388;-66
2024/02/20 09:05:26;;;;;;;0.30;0.30;;;;;;;;;;5074055;28;20024;-66
2024/02/20 09:07:51;;;;;;;0.00;0.00;;;;;;;;;;5073801;28;20042;-67
2024/02/20 09:10:16;;;;;;;0.10;0.10;;;;;;;;;;5073975;28;20254;-66
2024/02/20 09:12:42;;;;;;;0.00;0.00;;;;;;;;;;5073583;28;20023;-66
2024/02/20 09:15:07;;;;;;;0.20;0.20;;;;;;;;;;5073622;28;20020;-66
2024/02/20 09:17:32;;;;;;;0.10;0.10;;;;;;;;;;5073909;28;20028;-66
2024/02/20 09:19:58;;;;;;;0.73;0.40;;;;;;;;;;5073601;28;20024;-67
2024/02/20 09:22:26;;;;;;;0.10;0.10;;;;;;;;;;5073486;28;20264;-66
2024/02/20 09:24:51;;;;;;;0.20;0.20;;;;;;;;;;5073789;28;20505;-67
2024/02/20 09:27:16;;;;;;;0.00;0.00;;;;;;;;;;5073516;28;20024;-66
2024/02/20 09:29:42;;;;;;;0.10;0.10;;;;;;;;;;5073473;28;20245;-66
2024/02/20 09:32:08;;;;;;;0.70;0.52;;;;;;;;;;5073453;28;20028;-66
2024/02/20 09:34:33;;;;;;;0.40;0.40;;;;;;;;;;5073687;28;20165;-67
2024/02/20 09:36:58;;;;;;;0.22;0.22;;;;;;;;;;5073283;28;20017;-66
2024/02/20 09:39:25;;;;;;;0.33;0.33;;;;;;;;;;5073379;28;20024;-67
2024/02/20 09:41:53;;;;;;;1.27;0.95;;;;;;;;;;5073276;28;20077;-67
2024/02/20 09:44:19;;;;;;;0.10;0.10;;;;;;;;;;5073054;28;20040;-66
2024/02/20 09:46:51;;;;;;;0.25;0.25;;;;;;;;;;5073574;28;20524;-66
2024/02/20 09:49:17;;;;;;;;;;;;;;;;;;5073702;28;20025;-66
2024/02/20 09:51:42;;;;;;;0.10;0.10;;;;;;;;;;5073154;28;19942;-67
2024/02/20 09:54:07;;;;;;;0.32;0.32;;;;;;;;;;5073277;28;20107;-67
2024/02/20 09:56:35;;;;;;;0.10;0.10;;;;;;;;;;5073218;28;20021;-66
2024/02/20 09:59:01;;;;;;;0.20;0.20;;;;;;;;;;5073498;28;20456;-66
2024/02/20 10:01:26;;;;;;;0.10;0.10;;;;;;;;;;5073125;28;20073;-66
2024/02/20 10:03:56;;;;;;;0.68;0.40;;;;;;;;;;5074511;28;20016;-66
2024/02/20 10:06:21;;;;;;;0.10;0.10;;;;;;;;;;5077273;28;20016;-66
2024/02/20 10:08:54;;;;;;;0.77;0.77;;;;;;;;;;5059265;28;20095;-67
2024/02/20 10:11:19;;;;;;;0.20;0.20;;;;;;;;;;5059553;28;20578;-67
2024/02/20 10:13:45;;;;;;;0.08;0.08;;;;;;;;;;5077152;28;20017;-67
2024/02/20 10:16:14;;;;;;;7.38;1.55;;;;;;;;;;5077331;28;20027;-67
2024/02/20 10:18:39;;;;;;;2.42;0.68;;;;;;;;;;5077072;28;20016;-67
2024/02/20 10:21:08;;;;;;;0.30;0.30;;;;;;;;;;5077255;28;20016;-67
2024/02/20 10:23:34;;;;;;;0.30;0.30;;;;;;;;;;5077122;28;20477;-67
2024/02/20 10:26:02;;;;;;;0.38;0.38;;;;;;;;;;5076925;28;20031;-67
2024/02/20 10:28:27;;;;;;;0.20;0.20;;;;;;;;;;5077120;28;20484;-66
2024/02/20 10:30:54;;;;;;;0.57;0.40;;;;;;;;;;5076847;28;20016;-67
2024/02/20 10:33:19;;;;;;;0.20;0.20;;;;;;;;;;5076928;28;20029;-67
2024/02/20 10:35:44;;;;;;;0.40;0.40;;;;;;;;;;5076674;28;20013;-66
2024/02/20 10:38:16;;;;;;;0.25;0.25;;;;;;;;;;5076923;28;20040;-67
2024/02/20 10:40:41;;;;;;;1.55;0.85;;;;;;;;;;5076885;28;20134;-67
2024/02/20 10:43:06;;;;;;;0.05;0.05;;;;;;;;;;5076615;28;20024;-67
2024/02/20 10:45:32;;;;;;;0.05;0.05;;;;;;;;;;5076388;28;20076;-67
2024/02/20 10:48:02;;;;;;;0.08;0.08;;;;;;;;;;5076424;28;20032;-67
2024/02/20 10:50:28;;;;;;;0.47;0.40;;;;;;;;;;5076350;28;20043;-67
2024/02/20 10:52:53;;;;;;;0.57;0.57;;;;;;;;;;5076513;28;20502;-67
2024/02/20 10:55:19;;;;;;;0.20;0.20;;;;;;;;;;5076318;28;20110;-67
2024/02/20 10:57:46;;;;;;;0.08;0.08;;;;;;;;;;5076216;28;20021;-67
2024/02/20 11:00:11;;;;;;;0.40;0.40;;;;;;;;;;5076468;28;20087;-67
2024/02/20 11:02:38;;;;;;;0.20;0.20;;;;;;;;;;5076450;28;20565;-67
2024/02/20 11:05:04;;;;;;;0.30;0.30;;;;;;;;;;5076410;28;20027;-67
2024/02/20 11:07:29;;;;;;;0.28;0.28;;;;;;;;;;5076399;28;20104;-67
2024/02/20 11:10:07;;;;;;;0.10;0.10;;;;;;;;;;5076200;28;20488;-67
2024/02/20 11:12:33;;;;;;;0.15;0.15;;;;;;;;;;5076082;28;20074;-67
2024/02/20 11:15:09;;;;;;;0.03;0.03;;;;;;;;;;5075628;28;20016;-66
2024/02/20 11:17:35;;;;;;;0.20;0.20;;;;;;;;;;5075833;28;20055;-67
2024/02/20 11:20:05;;;;;;;0.00;0.00;;;;;;;;;;5075903;28;20049;-66
2024/02/20 11:22:30;;;;;;;0.03;0.03;;;;;;;;;;5076030;28;20473;-67
2024/02/20 11:25:02;;;;;;;0.57;0.53;;;;;;;;;;5075850;28;20035;-67
2024/02/20 11:27:28;;;;;;;0.20;0.20;;;;;;;;;;5075810;28;20032;-67
2024/02/20 11:29:53;;;;;;;0.10;0.10;;;;;;;;;;5075923;28;20081;-67
2024/02/20 11:32:19;;;;;;;0.10;0.10;;;;;;;;;;5075588;28;20036;-67
2024/02/20 11:34:44;;;;;;;0.00;0.00;;;;;;;;;;5075565;28;20242;-66
2024/02/20 11:37:10;;;;;;;0.00;0.00;;;;;;;;;;5075602;28;20025;-66
2024/02/20 11:39:35;;;;;;;0.17;0.17;;;;;;;;;;5075479;28;20253;-66
2024/02/20 11:42:00;;;;;;;0.10;0.10;;;;;;;;;;5075516;28;20025;-67
2024/02/20 11:44:26;;;;;;;0.23;0.23;;;;;;;;;;5075264;28;20292;-66
2024/02/20 11:46:54;;;;;;;0.22;0.22;;;;;;;;;;5075398;28;20233;-67
2024/02/20 11:49:20;;;;;;;0.00;0.00;;;;;;;;;;5075308;28;20020;-67
2024/02/20 11:51:45;;;;;;;0.00;0.00;;;;;;;;;;5075488;28;20501;-66
2024/02/20 11:54:11;;;;;;;0.03;0.03;;;;;;;;;;5075518;28;20017;-66
2024/02/20 11:56:37;;;;;;;6.00;0.80;;;;;;;;;;5075271;28;20021;-66
2024/02/20 11:59:03;;;;;;;0.00;0.00;;;;;;;;;;5075445;28;20263;-67
2024/02/20 12:01:28;;;;;;;0.05;0.05;;;;;;;;;;5075081;28;20146;-66
2024/02/20 12:03:54;;;;;;;0.00;0.00;;;;;;;;;;5056990;28;20044;-66
2024/02/20 12:06:27;;;;;;;0.10;0.10;;;;;;;;;;5075013;28;20485;-66
2024/02/20 12:08:58;;;;;;;0.08;0.08;;;;;;;;;;5075211;28;20468;-67
2024/02/20 12:11:27;;;;;;;0.57;0.30;;;;;;;;;;5074791;28;20067;-67
2024/02/20 12:13:53;;;;;;;0.73;0.30;;;;;;;;;;5074865;28;20048;-66
2024/02/20 12:16:22;;;;;;;0.08;0.08;;;;;;;;;;5074835;28;20016;-66
2024/02/20 12:18:48;;;;;;;0.10;0.10;;;;;;;;;;5075050;28;20369;-67
2024/02/20 12:21:14;;;;;;;0.30;0.30;;;;;;;;;;5074962;28;20055;-66
2024/02/20 12:23:39;;;;;;;0.10;0.10;;;;;;;;;;5074968;28;20040;-67
2024/02/20 12:26:08;;;;;;;0.05;0.05;;;;;;;;;;5074046;28;20498;-67
2024/02/20 12:28:33;;;;;;;0.00;0.00;;;;;;;;;;5074861;28;20525;-67
2024/02/20 12:30:58;;;;;;;0.00;0.00;;;;;;;;;;5074601;28;20017;-67
2024/02/20 12:33:24;;;;;;;0.20;0.20;;;;;;;;;;5074375;28;20025;-66
2024/02/20 12:35:49;;;;;;;0.23;0.23;;;;;;;;;;5074459;28;20448;-66
2024/02/20 12:38:14;;;;;;;0.13;0.13;;;;;;;;;;5074380;28;20601;-67
2024/02/20 12:40:39;;;;;;;0.10;0.10;;;;;;;;;;5074365;28;20613;-67
2024/02/20 12:43:04;;;;;;;0.53;0.20;;;;;;;;;;5074273;28;20465;-67
2024/02/20 12:45:30;;;;;;;2.23;0.27;;;;;;;;;;5074102;28;20286;-66
2024/02/20 12:47:55;;;;;;;0.13;0.13;;;;;;;;;;5074181;28;20248;-66
2024/02/20 12:50:20;;;;;;;0.00;0.00;;;;;;;;;;5074118;28;20272;-66
2024/02/20 12:52:45;;;;;;;0.10;0.10;;;;;;;;;;5074055;28;20279;-66
2024/02/20 12:55:11;;;;;;;0.10;0.10;;;;;;;;;;5074314;28;20016;-66
2024/02/20 12:57:36;;;;;;;0.10;0.10;;;;;;;;;;5074089;28;20116;-67
2024/02/20 13:00:01;;;;;;;2.20;0.67;;;;;;;;;;5073998;28;20526;-66
2024/02/20 13:02:27;;;;;;;0.10;0.10;;;;;;;;;;5073886;28;20321;-66
2024/02/20 13:04:52;;;;;;;0.00;0.00;;;;;;;;;;5074124;28;20036;-66
2024/02/20 13:07:17;;;;;;;0.10;0.10;;;;;;;;;;5074074;28;20369;-66
2024/02/20 13:09:42;;;;;;;0.00;0.00;;;;;;;;;;5073842;28;20028;-66
2024/02/20 13:12:09;;;;;;;0.52;0.40;;;;;;;;;;5073647;28;20060;-67
2024/02/20 13:14:35;;;;;;;0.52;0.40;;;;;;;;;;5074171;28;20040;-66
2024/02/20 13:17:00;;;;;;;0.00;0.00;;;;;;;;;;5073745;28;20468;-67
2024/02/20 13:19:25;;;;;;;0.20;0.20;;;;;;;;;;5073864;28;20021;-66
2024/02/20 13:21:50;;;;;;;0.60;0.60;;;;;;;;;;5073587;28;20025;-66
2024/02/20 13:24:16;;;;;;;0.00;0.00;;;;;;;;;;5073848;28;20256;-66
2024/02/20 13:26:41;;;;;;;0.33;0.33;;;;;;;;;;5073708;28;20048;-66
2024/02/20 13:29:10;;;;;;;0.10;0.10;;;;;;;;;;5073631;28;20665;-67
2024/02/20 13:31:36;;;;;;;0.00;0.00;;;;;;;;;;5073416;28;20032;-66
2024/02/20 13:34:01;;;;;;;0.00;0.00;;;;;;;;;;5073712;28;20017;-66
2024/02/20 13:36:27;;;;;;;0.20;0.20;;;;;;;;;;5073686;28;20221;-66
2024/02/20 13:38:52;;;;;;;0.52;0.47;;;;;;;;;;5055402;28;20257;-67
2024/02/20 13:41:17;;;;;;;0.10;0.10;;;;;;;;;;5073596;28;20035;-66
2024/02/20 13:43:43;;;;;;;0.20;0.20;;;;;;;;;;5073376;28;20052;-66
2024/02/20 13:46:08;;;;;;;1.55;0.95;;;;;;;;;;5073239;28;20246;-67
2024/02/20 13:48:33;;;;;;;0.10;0.10;;;;;;;;;;5073537;28;20016;-66
2024/02/20 13:51:02;;;;;;;0.10;0.10;;;;;;;;;;5073275;28;20025;-67
2024/02/20 13:53:29;;;;;;;0.35;0.35;;;;;;;;;;5073052;28;20355;-66
2024/02/20 13:55:54;;;;;;;0.08;0.05;;;;;;;;;;5073442;28;20039;-67
2024/02/20 13:58:21;;;;;;;0.08;0.08;;;;;;;;;;5073202;28;20029;-67
2024/02/20 14:00:46;;;;;;;0.10;0.10;;;;;;;;;;5073122;28;20048;-67
2024/02/20 14:03:12;;;;;;;0.80;0.45;;;;;;;;;;5073172;28;20059;-67
2024/02/20 14:05:38;;;;;;;0.05;0.05;;;;;;;;;;5073203;28;20059;-67
2024/02/20 14:08:03;;;;;;;0.10;0.10;;;;;;;;;;5073040;28;20361;-67
2024/02/20 14:10:29;;;;;;;0.00;0.00;;;;;;;;;;5073066;28;20024;-66
2024/02/20 14:12:54;;;;;;;0.00;0.00;;;;;;;;;;5073169;28;20032;-67
2024/02/20 14:15:19;;;;;;;0.20;0.20;;;;;;;;;;5073042;28;20025;-66
2024/02/20 14:17:45;;;;;;;0.57;0.25;;;;;;;;;;5073285;28;20025;-67
2024/02/20 14:20:11;;;;;;;0.00;0.00;;;;;;;;;;5073245;28;20013;-67
2024/02/20 14:22:36;;;;;;;0.10;0.10;;;;;;;;;;5072989;28;20476;-66
2024/02/20 14:25:05;;;;;;;0.10;0.10;;;;;;;;;;5072916;28;20039;-66
2024/02/20 14:27:30;;;;;;;0.30;0.30;;;;;;;;;;5072867;28;20020;-66
2024/02/20 14:29:56;;;;;;;0.00;0.00;;;;;;;;;;5072873;28;20030;-67
2024/02/20 14:32:21;;;;;;;0.00;0.00;;;;;;;;;;5073010;28;20025;-67
2024/02/20 14:34:46;;;;;;;0.20;0.20;;;;;;;;;;5072873;28;20020;-66